Time;durP1;ratioP1;P1;durP2;ratioP2;P2;SDS_P1;SDS_P2;PMS_P1;PMS_P2;Temp;Humidity;BMP_temperature;BMP_pressure;BME280_temperature;BME280_humidity;BME280_pressure;Samples;Min_cycle;Max_cycle;Signal;HPM_P1;HPM_P2
2023/07/29 00:08:32;;;;;;;6.40;2.88;;;;;;;23.65;100.00;99548.88;30867741;28;20143;-76
2023/07/29 00:23:34;;;;;;;5.10;2.80;;;;;;;23.58;100.00;99554.28;30868896;28;20509;-77
2023/07/29 00:38:36;;;;;;;3.47;2.40;;;;;;;23.52;100.00;99575.72;30868804;28;20145;-77
2023/07/29 00:53:38;;;;;;;3.70;2.60;;;;;;;23.35;100.00;99565.56;30866635;28;20081;-79
2023/07/29 01:08:58;;;;;;;4.88;2.75;;;;;;;23.31;100.00;99590.03;30868297;28;20059;-75
2023/07/29 01:24:01;;;;;;;5.97;3.35;;;;;;;23.16;100.00;99592.41;30863838;28;20457;-76
2023/07/29 01:39:03;;;;;;;5.68;3.05;;;;;;;23.02;100.00;99563.88;30867542;28;20158;-77
2023/07/29 01:54:05;;;;;;;5.70;3.33;;;;;;;22.96;100.00;99562.41;30864948;28;20070;-75
2023/07/29 02:09:07;;;;;;;4.35;3.20;;;;;;;22.69;100.00;99573.16;30857070;28;20043;-77
2023/07/29 02:24:09;;;;;;;5.28;3.42;;;;;;;22.55;100.00;99573.50;30861888;28;20093;-77
2023/07/29 02:39:11;;;;;;;5.78;2.90;;;;;;;22.69;100.00;99591.75;30868924;28;20496;-78
2023/07/29 02:54:13;;;;;;;5.60;2.95;;;;;;;22.84;100.00;99610.81;30884937;28;20129;-76
2023/07/29 03:09:15;;;;;;;6.85;3.30;;;;;;;23.08;100.00;99608.88;30887430;28;20050;-75
2023/07/29 03:24:17;;;;;;;8.15;3.83;;;;;;;23.34;100.00;99641.59;30873127;28;20058;-75
2023/07/29 03:39:19;;;;;;;5.88;3.05;;;;;;;23.76;100.00;99662.38;30875820;28;20545;-76
2023/07/29 03:54:21;;;;;;;6.28;3.47;;;;;;;24.10;100.00;99659.22;30876815;28;20043;-78
2023/07/29 04:09:24;;;;;;;4.75;3.58;;;;;;;24.82;100.00;99676.94;30877349;28;20082;-78
2023/07/29 04:24:25;;;;;;;6.60;3.08;;;;;;;25.30;100.00;99675.97;30873518;28;20464;-77
2023/07/29 04:39:27;;;;;;;5.35;3.17;;;;;;;25.72;100.00;99676.31;30873372;28;20581;-77
2023/07/29 04:54:29;;;;;;;5.47;2.92;;;;;;;26.54;100.00;99691.13;30869511;28;20486;-78
2023/07/29 05:09:32;;;;;;;7.60;3.23;;;;;;;27.16;100.00;99717.06;30869938;28;20042;-78
2023/07/29 05:24:34;;;;;;;5.53;2.40;;;;;;;27.68;100.00;99726.47;30867648;28;20078;-76
2023/07/29 05:39:36;;;;;;;4.83;2.77;;;;;;;28.21;100.00;99744.91;30867486;28;20093;-77
2023/07/29 05:54:39;;;;;;;4.13;2.35;;;;;;;29.32;100.00;99738.03;30862841;28;20160;-76
2023/07/29 06:09:41;;;;;;;;;;;;;;;29.15;71.74;99777.69;30858054;28;20047;-78
2023/07/29 06:24:43;;;;;;;3.20;2.65;;;;;;;29.74;94.95;99767.19;30859259;28;19957;-77
2023/07/29 06:39:45;;;;;;;;;;;;;;;30.55;65.69;99784.94;30861357;28;20058;-77
2023/07/29 06:54:47;;;;;;;7.05;2.40;;;;;;;30.82;80.19;99777.59;30861796;28;20016;-79
2023/07/29 07:09:50;;;;;;;2.22;1.83;;;;;;;31.45;81.29;99777.44;30858559;28;20082;-78
2023/07/29 07:24:52;;;;;;;3.28;1.70;;;;;;;32.24;75.23;99785.41;30871605;28;20051;-78
2023/07/29 07:39:54;;;;;;;3.45;2.10;;;;;;;32.66;65.09;99802.91;30878980;28;20047;-77
2023/07/29 07:54:55;;;;;;;3.45;2.10;;;;;;;33.00;63.48;99787.34;30874511;28;20055;-78
2023/07/29 08:09:58;;;;;;;3.08;1.83;;;;;;;33.72;53.84;99777.47;30871735;28;20065;-78
2023/07/29 08:25:00;;;;;;;3.30;2.20;;;;;;;33.71;59.91;99787.22;30875467;28;20055;-77
2023/07/29 08:40:03;;;;;;;2.88;2.30;;;;;;;32.92;58.84;99784.63;30874572;28;20054;-79
2023/07/29 08:55:05;;;;;;;3.53;2.55;;;;;;;31.89;61.98;99773.38;30866235;28;20054;-78
2023/07/29 09:10:10;;;;;;;3.55;2.80;;;;;;;31.53;60.05;99761.28;30868748;28;20061;-77
2023/07/29 09:25:16;;;;;;;3.40;2.58;;;;;;;31.38;64.23;99750.19;30859597;28;20070;-78
2023/07/29 09:40:18;;;;;;;3.55;2.67;;;;;;;31.63;61.98;99749.44;30869452;28;20059;-77
2023/07/29 09:55:26;;;;;;;3.85;2.45;;;;;;;33.54;55.20;99735.31;30863344;28;20051;-77
2023/07/29 10:10:28;;;;;;;3.05;2.47;;;;;;;35.04;54.69;99727.94;30867410;28;20050;-78
2023/07/29 10:25:41;;;;;;;3.25;2.03;;;;;;;35.30;46.51;99715.69;30861117;28;20141;-76
2023/07/29 10:40:48;;;;;;;7.10;2.92;;;;;;;34.31;52.88;99717.09;30863413;28;20141;-78
2023/07/29 10:55:51;;;;;;;4.00;2.40;;;;;;;33.60;54.89;99715.34;30860950;28;20548;-75
2023/07/29 11:11:06;;;;;;;3.03;2.10;;;;;;;34.02;49.78;99695.28;30882822;28;20062;-76
2023/07/29 11:26:08;;;;;;;5.93;2.30;;;;;;;34.08;48.17;99681.66;30877809;28;20055;-74
2023/07/29 11:41:09;;;;;;;4.20;2.45;;;;;;;32.87;49.08;99687.25;30875726;28;20232;-75
2023/07/29 11:56:12;;;;;;;4.72;2.78;;;;;;;32.93;49.05;99667.31;30872968;28;20054;-75
2023/07/29 12:11:15;;;;;;;5.55;2.72;;;;;;;33.37;50.65;99658.75;30870349;28;20077;-74
2023/07/29 12:26:17;;;;;;;4.13;2.50;;;;;;;33.01;49.04;99656.69;30863491;28;20511;-76
2023/07/29 12:41:19;;;;;;;2.72;2.38;;;;;;;32.78;49.41;99669.03;30866608;28;20675;-77
2023/07/29 12:56:21;;;;;;;3.28;2.50;;;;;;;32.88;51.52;99663.44;30864751;28;20553;-74
2023/07/29 13:11:23;;;;;;;6.30;2.38;;;;;;;32.39;50.19;99656.03;30865322;28;20564;-77
2023/07/29 13:26:25;;;;;;;4.75;2.33;;;;;;;32.64;51.94;99647.47;30862396;28;20113;-74
2023/07/29 13:41:27;;;;;;;9.75;3.50;;;;;;;32.37;53.00;99653.06;30859839;28;20194;-75
2023/07/29 13:56:29;;;;;;;6.18;2.60;;;;;;;32.13;55.34;99663.81;30859084;28;20050;-77
2023/07/29 14:11:32;;;;;;;10.48;5.85;;;;;;;32.25;56.38;99668.97;30856904;28;20516;-75
2023/07/29 14:26:33;;;;;;;5.03;2.65;;;;;;;32.19;56.21;99655.88;30859115;28;20055;-76
2023/07/29 14:41:36;;;;;;;2.58;2.00;;;;;;;32.09;55.72;99668.38;30879480;28;20051;-76
2023/07/29 14:56:38;;;;;;;3.92;2.53;;;;;;;31.49;57.93;99670.44;30878747;28;20138;-75
2023/07/29 15:11:41;;;;;;;3.05;2.25;;;;;;;31.57;58.54;99670.38;30879474;28;20050;-75
2023/07/29 15:26:43;;;;;;;3.25;2.33;;;;;;;31.36;59.09;99679.91;30875637;28;20054;-79
2023/07/29 15:41:45;;;;;;;4.45;2.55;;;;;;;31.01;59.91;99689.50;30883080;28;20149;-79
2023/07/29 15:56:47;;;;;;;17.70;14.48;;;;;;;30.98;60.76;99687.81;30883476;28;20054;-77
2023/07/29 16:11:49;;;;;;;7.07;5.40;;;;;;;31.01;61.32;99692.28;30887657;28;20070;-76
2023/07/29 16:26:51;;;;;;;6.35;4.13;;;;;;;30.92;62.48;99706.94;30878001;28;20051;-78
2023/07/29 16:41:53;;;;;;;4.75;3.38;;;;;;;30.66;63.28;99722.22;30876267;28;20094;-77
2023/07/29 16:57:06;;;;;;;4.95;3.45;;;;;;;30.41;63.94;99717.25;30873065;28;20090;-77
2023/07/29 17:12:08;;;;;;;6.35;3.45;;;;;;;30.21;64.57;99740.66;30869678;28;20170;-79
2023/07/29 17:27:10;;;;;;;5.90;4.07;;;;;;;29.89;66.52;99732.84;30872099;28;20513;-75
2023/07/29 17:42:12;;;;;;;7.00;3.87;;;;;;;29.63;69.53;99741.63;30865686;28;20046;-76
2023/07/29 17:57:14;;;;;;;8.67;4.60;;;;;;;29.36;72.15;99750.34;30860369;28;20638;-74
2023/07/29 18:12:16;;;;;;;;;;;;;;;29.27;75.73;99745.31;30860396;28;20710;-79
2023/07/29 18:27:18;;;;;;;18.33;13.27;;;;;;;28.97;75.99;99753.63;30862549;28;19967;-79
2023/07/29 18:42:20;;;;;;;5.13;3.73;;;;;;;28.73;78.49;99752.03;30860640;28;20137;-76
2023/07/29 18:57:22;;;;;;;8.67;5.80;;;;;;;28.73;78.76;99740.88;30856895;28;20055;-75
2023/07/29 19:12:24;;;;;;;7.90;5.00;;;;;;;28.54;80.11;99757.91;30857604;28;20141;-77
2023/07/29 19:27:26;;;;;;;9.63;5.13;;;;;;;28.55;79.93;99770.59;30874083;28;20460;-77
2023/07/29 19:42:28;;;;;;;6.43;4.90;;;;;;;28.43;81.06;99777.75;30876895;28;20386;-75
2023/07/29 19:57:30;;;;;;;6.83;5.30;;;;;;;28.36;80.68;99775.66;30875515;28;20521;-76
2023/07/29 20:12:32;;;;;;;34.80;21.13;;;;;;;28.29;81.42;99787.56;30873399;28;20059;-74
2023/07/29 20:27:34;;;;;;;13.03;9.23;;;;;;;28.08;83.07;99785.53;30871687;28;20417;-76
2023/07/29 20:42:36;;;;;;;6.93;5.07;;;;;;;28.08;83.32;99796.69;30876603;28;20105;-79
2023/07/29 20:57:38;;;;;;;6.47;4.10;;;;;;;28.00;84.33;99804.25;30870979;28;20093;-75
2023/07/29 21:12:40;;;;;;;10.90;7.60;;;;;;;27.98;83.47;99806.09;30855336;28;20061;-73
2023/07/29 21:27:42;;;;;;;5.93;4.40;;;;;;;27.80;83.95;99805.03;30865596;28;20433;-74
2023/07/29 21:42:44;;;;;;;8.30;5.77;;;;;;;27.32;89.18;99790.44;30863505;28;20090;-74
2023/07/29 21:57:46;;;;;;;11.67;5.20;;;;;;;26.95;92.62;99780.38;30858894;28;20134;-74
2023/07/29 22:12:49;;;;;;;10.20;5.20;;;;;;;26.90;92.44;99777.69;30862933;28;20054;-73
2023/07/29 22:27:51;;;;;;;7.03;4.80;;;;;;;26.67;93.77;99769.81;30853710;28;20397;-73
2023/07/29 22:42:53;;;;;;;7.67;4.53;;;;;;;26.72;95.10;99780.06;30859059;28;20054;-72
2023/07/29 22:57:56;;;;;;;11.68;7.07;;;;;;;26.59;96.71;99771.75;30867659;28;20050;-74
2023/07/29 23:12:59;;;;;;;15.55;5.93;;;;;;;26.53;98.74;99778.69;30876875;28;20074;-73
2023/07/29 23:28:01;;;;;;;7.90;5.47;;;;;;;26.22;100.00;99777.53;30872257;28;20079;-72
2023/07/29 23:43:03;;;;;;;8.55;6.15;;;;;;;26.19;100.00;99761.91;30872472;28;20106;-72
2023/07/29 23:58:05;;;;;;;12.07;7.00;;;;;;;26.01;100.00;99749.56;30871465;28;20129;-73
